Terminal Aerodrome Forecast
Issued by NWS

Home | Current Version | Previous Version | Text Only | Print | Product List | Glossary On
Versions: 1 2 3 4 5 6 7 8 9 10 11 12 13 14 15 16
408
FTUS42 KTAE 271404 AAA
TAFVLD
TAF AMD
KVLD 271404Z 2714/2812 11003KT P6SM SKC WS010/15035KT
     FM271500 15006KT P6SM SKC
     FM271600 15008KT P6SM BKN040
     FM280700 00000KT 1SM BR OVC003=

USA.gov is the U.S. government's official web portal to all federal, state and local government web resources and services.